Time;durP1;ratioP1;P1;durP2;ratioP2;P2;SDS_P1;SDS_P2;PMS_P1;PMS_P2;Temp;Humidity;BMP_temperature;BMP_pressure;BME280_temperature;BME280_humidity;BME280_pressure;Samples;Min_cycle;Max_cycle;Signal;HPM_P1;HPM_P2
2023/10/06 00:00:19;;;;;;;0.85;0.52;;;13.70;87.50;;;;;;4735776;30;20048;-76
2023/10/06 00:02:46;;;;;;;0.70;0.70;;;13.80;87.00;;;;;;4733815;30;20071;-76
2023/10/06 00:05:13;;;;;;;1.27;0.70;;;13.80;87.00;;;;;;4735171;30;20532;-76
2023/10/06 00:07:40;;;;;;;1.23;0.82;;;13.70;87.00;;;;;;4719846;30;20059;-76
2023/10/06 00:10:16;;;;;;;1.83;0.70;;;13.80;87.10;;;;;;4734068;30;20458;-76
2023/10/06 00:12:47;;;;;;;0.77;0.60;;;13.70;87.00;;;;;;4735429;30;20122;-76
2023/10/06 00:15:26;;;;;;;1.42;0.75;;;13.70;87.60;;;;;;4735587;30;20112;-75
2023/10/06 00:17:56;;;;;;;0.85;0.73;;;13.60;86.90;;;;;;4732842;30;20566;-76
2023/10/06 00:20:30;;;;;;;1.20;0.80;;;13.80;87.10;;;;;;4719925;30;20037;-75
2023/10/06 00:23:02;;;;;;;0.75;0.75;;;13.70;87.00;;;;;;4734904;30;20049;-75
2023/10/06 00:25:28;;;;;;;1.08;0.90;;;13.70;87.10;;;;;;4735252;30;20113;-76
2023/10/06 00:27:54;;;;;;;1.58;0.75;;;13.70;87.10;;;;;;4751196;30;20109;-75
2023/10/06 00:30:20;;;;;;;0.93;0.73;;;13.70;87.10;;;;;;4752512;30;20134;-75
2023/10/06 00:32:48;;;;;;;1.35;0.88;;;13.70;87.10;;;;;;4736352;30;20048;-75
2023/10/06 00:35:17;;;;;;;1.25;0.80;;;13.70;87.10;;;;;;4734148;30;21711;-75
2023/10/06 00:37:43;;;;;;;0.95;0.80;;;13.60;87.10;;;;;;4733899;30;20469;-75
2023/10/06 00:40:11;;;;;;;1.58;0.90;;;13.70;87.20;;;;;;4734643;30;20055;-75
2023/10/06 00:42:38;;;;;;;1.05;0.77;;;13.60;87.20;;;;;;4748099;30;20075;-76
2023/10/06 00:45:07;;;;;;;1.27;1.00;;;13.60;87.20;;;;;;4704504;30;20108;-75
2023/10/06 00:47:38;;;;;;;0.88;0.73;;;13.70;87.90;;;;;;4734342;30;20469;-75
2023/10/06 00:50:11;;;;;;;1.10;0.95;;;13.70;87.30;;;;;;4733152;30;20045;-75
2023/10/06 00:52:39;;;;;;;0.98;0.80;;;13.70;87.30;;;;;;4719245;30;20048;-75
2023/10/06 00:55:10;;;;;;;1.17;0.88;;;13.60;87.30;;;;;;4719237;30;20454;-75
2023/10/06 00:57:37;;;;;;;0.70;0.70;;;13.60;87.40;;;;;;4719690;30;20044;-75
2023/10/06 01:00:16;;;;;;;0.80;0.75;;;13.60;87.40;;;;;;4734654;30;20037;-75
2023/10/06 01:02:43;;;;;;;1.95;0.90;;;13.60;87.40;;;;;;4733016;30;20037;-75
2023/10/06 01:05:09;;;;;;;1.38;0.80;;;13.60;87.40;;;;;;4748060;30;20068;-76
2023/10/06 01:07:39;;;;;;;1.58;0.90;;;13.60;87.40;;;;;;4732865;30;20464;-75
2023/10/06 01:10:16;;;;;;;0.95;0.88;;;13.60;87.40;;;;;;4732648;30;20053;-75
2023/10/06 01:12:43;;;;;;;1.67;0.98;;;13.60;87.40;;;;;;4732892;30;20060;-75
2023/10/06 01:15:18;;;;;;;0.95;0.60;;;13.60;87.50;;;;;;4731233;30;20043;-75
2023/10/06 01:17:45;;;;;;;1.15;0.80;;;13.60;87.50;;;;;;4719321;30;20099;-75
2023/10/06 01:20:41;;;;;;;1.13;0.80;;;13.60;87.50;;;;;;4704775;30;20459;-75
2023/10/06 01:23:01;;;;;;;1.15;0.90;;;13.60;87.50;;;;;;4720763;30;20048;-75
2023/10/06 01:25:27;;;;;;;1.15;0.80;;;13.50;87.50;;;;;;4704021;30;20053;-75
2023/10/06 01:27:53;;;;;;;1.17;0.75;;;13.50;87.60;;;;;;4718648;30;20040;-76
2023/10/06 01:30:20;;;;;;;1.98;1.17;;;13.50;87.60;;;;;;4733924;30;20064;-76
2023/10/06 01:32:50;;;;;;;1.52;0.90;;;13.50;87.60;;;;;;4718209;30;20045;-76
2023/10/06 01:35:23;;;;;;;1.10;0.90;;;13.50;87.70;;;;;;4718002;30;20496;-75
2023/10/06 01:37:57;;;;;;;1.50;1.00;;;13.50;87.70;;;;;;4703854;30;20040;-75
2023/10/06 01:43:10;;;;;;;1.95;1.00;;;13.50;87.70;;;;;;4706983;30;20044;-75
2023/10/06 01:45:43;;;;;;;3.00;1.10;;;13.50;87.80;;;;;;4717405;30;20053;-75
2023/10/06 01:48:22;;;;;;;1.48;1.10;;;13.50;87.80;;;;;;4717858;30;20041;-75
2023/10/06 01:50:57;;;;;;;2.22;1.02;;;13.50;87.80;;;;;;4702213;30;20143;-75
2023/10/06 01:53:31;;;;;;;1.67;1.10;;;13.50;87.80;;;;;;4690805;30;20054;-76
2023/10/06 01:56:01;;;;;;;2.67;1.10;;;13.50;87.80;;;;;;4717357;30;20049;-75
2023/10/06 01:58:27;;;;;;;2.60;1.00;;;13.50;87.90;;;;;;4732146;30;20051;-75
2023/10/06 02:00:56;;;;;;;2.30;1.02;;;13.50;87.90;;;;;;4716523;30;20496;-75
2023/10/06 02:03:36;;;;;;;1.30;0.90;;;13.50;88.00;;;;;;4716483;30;20149;-75
2023/10/06 02:06:04;;;;;;;1.40;0.90;;;13.50;87.90;;;;;;4718608;30;20143;-75
2023/10/06 02:08:30;;;;;;;1.20;1.00;;;13.40;87.90;;;;;;4716560;30;20043;-75
2023/10/06 02:11:23;;;;;;;1.20;0.90;;;13.50;88.00;;;;;;4731124;30;20067;-75
2023/10/06 02:13:48;;;;;;;1.17;0.85;;;13.40;88.10;;;;;;4731468;30;20048;-76
2023/10/06 02:16:18;;;;;;;1.05;0.80;;;13.30;88.00;;;;;;4717095;30;20543;-75
2023/10/06 02:18:54;;;;;;;2.35;1.00;;;13.30;88.10;;;;;;4731645;30;20633;-75
2023/10/06 02:21:31;;;;;;;0.90;0.80;;;13.40;88.20;;;;;;4678391;30;20557;-75
2023/10/06 02:24:03;;;;;;;1.60;1.00;;;13.40;88.20;;;;;;4667534;30;20506;-75
2023/10/06 02:26:35;;;;;;;1.40;0.98;;;13.40;88.20;;;;;;4679667;30;20038;-76
2023/10/06 02:29:02;;;;;;;1.15;0.88;;;13.40;88.30;;;;;;4696465;30;20044;-75
2023/10/06 02:31:28;;;;;;;1.52;0.90;;;13.30;88.20;;;;;;4696420;30;20063;-76
2023/10/06 02:33:54;;;;;;;1.05;0.90;;;13.30;88.20;;;;;;4696878;30;20060;-75
2023/10/06 02:36:23;;;;;;;1.02;0.90;;;13.30;88.30;;;;;;4696745;30;20132;-75
2023/10/06 02:38:50;;;;;;;1.25;0.85;;;13.30;88.30;;;;;;4682715;30;20116;-75
2023/10/06 02:41:18;;;;;;;1.17;0.70;;;13.30;88.40;;;;;;4696951;30;20087;-75
2023/10/06 02:43:47;;;;;;;1.15;0.88;;;13.30;88.40;;;;;;4696238;30;20042;-75
2023/10/06 02:46:15;;;;;;;1.27;0.80;;;13.30;88.40;;;;;;4696199;30;20136;-75
2023/10/06 02:48:50;;;;;;;1.38;0.80;;;13.30;88.50;;;;;;4696129;30;20057;-75
2023/10/06 02:54:21;;;;;;;1.20;0.60;;;13.20;88.50;;;;;;4731440;30;20052;-75
2023/10/06 02:56:47;;;;;;;;;;;13.20;88.60;;;;;;4720172;30;20055;-75
2023/10/06 02:59:21;;;;;;;0.88;0.73;;;13.20;88.60;;;;;;4746102;30;19918;-75
2023/10/06 03:01:52;;;;;;;0.52;0.52;;;13.30;88.60;;;;;;4704411;30;20094;-75
2023/10/06 03:04:21;;;;;;;0.80;0.80;;;13.10;88.50;;;;;;4732240;30;20052;-75
2023/10/06 03:06:53;;;;;;;1.40;0.80;;;13.20;88.60;;;;;;4750963;30;20048;-75
2023/10/06 03:09:21;;;;;;;2.58;0.95;;;13.20;88.60;;;;;;4749320;30;20063;-75
2023/10/06 03:11:49;;;;;;;0.70;0.65;;;13.20;88.70;;;;;;4718413;30;20045;-75
2023/10/06 03:14:24;;;;;;;3.28;0.93;;;13.20;88.70;;;;;;4733151;30;20095;-75
2023/10/06 03:16:51;;;;;;;1.40;0.98;;;13.10;88.60;;;;;;4731640;30;20485;-75
2023/10/06 03:19:24;;;;;;;1.30;0.98;;;13.10;88.60;;;;;;4717372;30;20053;-75
2023/10/06 03:21:53;;;;;;;0.82;0.73;;;13.10;88.70;;;;;;4731843;30;20123;-75
2023/10/06 03:24:32;;;;;;;1.50;1.00;;;13.10;88.70;;;;;;4748762;30;20047;-75
2023/10/06 03:26:58;;;;;;;0.93;0.80;;;13.10;88.70;;;;;;4736457;30;20507;-76
2023/10/06 03:29:33;;;;;;;1.17;0.85;;;13.10;88.70;;;;;;4734175;30;20072;-75
2023/10/06 03:31:59;;;;;;;3.33;0.85;;;13.10;88.70;;;;;;4734913;30;20404;-75
2023/10/06 03:34:26;;;;;;;1.48;0.95;;;13.10;88.70;;;;;;4753654;30;20097;-75
2023/10/06 03:36:51;;;;;;;1.10;0.88;;;13.10;88.80;;;;;;4753387;30;20067;-75
2023/10/06 03:39:22;;;;;;;1.27;0.82;;;13.10;88.80;;;;;;4737503;30;20437;-75
2023/10/06 03:41:52;;;;;;;1.75;1.00;;;13.20;88.90;;;;;;4737534;30;20047;-75
2023/10/06 03:44:26;;;;;;;1.33;0.98;;;13.10;88.80;;;;;;4751968;30;20549;-75
2023/10/06 03:46:53;;;;;;;1.08;0.90;;;13.10;88.80;;;;;;4738272;30;20396;-75
2023/10/06 03:49:19;;;;;;;1.33;0.95;;;13.20;88.90;;;;;;4752240;30;20032;-75
2023/10/06 03:51:45;;;;;;;1.15;0.90;;;13.10;88.90;;;;;;4752044;30;20116;-75
2023/10/06 03:54:10;;;;;;;1.50;1.00;;;13.10;88.90;;;;;;4737175;30;20105;-75
2023/10/06 03:56:36;;;;;;;0.95;0.90;;;13.10;88.90;;;;;;4737059;30;20496;-75
2023/10/06 03:59:12;;;;;;;1.60;0.90;;;13.10;89.00;;;;;;4736900;30;20403;-75
2023/10/06 04:01:38;;;;;;;1.08;0.85;;;13.10;89.00;;;;;;4723625;30;20058;-75
2023/10/06 04:04:05;;;;;;;1.30;0.90;;;13.10;89.60;;;;;;4734421;30;20060;-75
2023/10/06 04:06:34;;;;;;;0.73;0.73;;;13.10;89.10;;;;;;4748732;30;20052;-75
2023/10/06 04:09:01;;;;;;;1.70;1.02;;;13.00;89.00;;;;;;4749561;30;20052;-75
2023/10/06 04:11:29;;;;;;;2.30;0.90;;;13.00;89.10;;;;;;4737324;30;20051;-75
2023/10/06 04:13:55;;;;;;;2.05;1.05;;;13.00;89.10;;;;;;4736702;30;20411;-75
2023/10/06 04:16:23;;;;;;;1.75;0.90;;;13.00;89.10;;;;;;4751704;30;20118;-75
2023/10/06 04:18:49;;;;;;;1.38;1.00;;;13.10;89.20;;;;;;4752262;30;20036;-75
2023/10/06 04:21:15;;;;;;;1.25;0.75;;;13.00;89.10;;;;;;4751976;30;20131;-75
2023/10/06 04:23:41;;;;;;;1.17;0.90;;;13.00;89.20;;;;;;4752874;30;20040;-75
2023/10/06 04:26:09;;;;;;;0.90;0.80;;;13.00;89.20;;;;;;4753418;30;20047;-75
2023/10/06 04:28:35;;;;;;;1.55;0.80;;;13.00;89.20;;;;;;4736685;30;20492;-76
2023/10/06 04:31:01;;;;;;;1.63;0.75;;;13.00;89.20;;;;;;4737572;30;20123;-75
2023/10/06 04:33:28;;;;;;;1.00;0.90;;;13.00;89.30;;;;;;4737055;30;20189;-75
2023/10/06 04:35:55;;;;;;;2.20;1.02;;;13.00;89.30;;;;;;4737219;30;20164;-75
2023/10/06 04:38:23;;;;;;;1.00;0.85;;;13.00;89.30;;;;;;4751851;30;20048;-75
2023/10/06 04:40:49;;;;;;;1.55;1.00;;;13.00;89.30;;;;;;4753314;30;20129;-75
2023/10/06 04:43:17;;;;;;;1.92;1.10;;;13.00;89.90;;;;;;4753320;30;20087;-75
2023/10/06 04:45:44;;;;;;;2.30;1.00;;;13.00;89.30;;;;;;4733446;30;20547;-75
2023/10/06 04:48:10;;;;;;;2.08;1.10;;;13.00;89.30;;;;;;4734787;30;20124;-77
2023/10/06 04:50:36;;;;;;;1.77;1.10;;;13.00;89.20;;;;;;4704624;30;20056;-77
2023/10/06 04:53:06;;;;;;;2.28;1.02;;;13.00;89.20;;;;;;4733534;30;20135;-76
2023/10/06 04:55:38;;;;;;;1.25;0.98;;;13.00;89.20;;;;;;4723377;30;20045;-75
2023/10/06 04:58:05;;;;;;;1.00;0.90;;;13.00;89.20;;;;;;4737049;30;20056;-75
2023/10/06 05:00:33;;;;;;;1.60;1.02;;;13.10;89.30;;;;;;4734581;30;20095;-75
2023/10/06 05:02:59;;;;;;;1.35;0.85;;;13.00;89.20;;;;;;4721849;30;20072;-75
2023/10/06 05:05:26;;;;;;;1.88;1.00;;;13.00;89.20;;;;;;4752293;30;20546;-75
2023/10/06 05:07:53;;;;;;;1.08;0.80;;;12.90;89.20;;;;;;4725307;30;20047;-75
2023/10/06 05:10:23;;;;;;;1.40;1.13;;;12.90;89.20;;;;;;4733087;30;20041;-76
2023/10/06 05:12:48;;;;;;;1.30;0.95;;;12.90;89.20;;;;;;4734300;30;20051;-75
2023/10/06 05:15:23;;;;;;;1.83;1.00;;;12.90;89.20;;;;;;4732953;30;20123;-76
2023/10/06 05:17:55;;;;;;;1.13;0.80;;;13.00;89.30;;;;;;4733097;30;20041;-76
2023/10/06 05:20:27;;;;;;;1.75;1.00;;;12.90;89.30;;;;;;4722916;30;20040;-76
2023/10/06 05:22:53;;;;;;;3.78;1.00;;;12.90;89.30;;;;;;4751951;30;20040;-76
2023/10/06 05:25:19;;;;;;;2.20;1.20;;;12.90;89.30;;;;;;4752365;30;20059;-76
2023/10/06 05:27:47;;;;;;;1.55;1.02;;;12.90;89.40;;;;;;4750686;30;20492;-75
2023/10/06 05:30:13;;;;;;;1.40;1.08;;;12.90;89.40;;;;;;4751746;30;20058;-75
2023/10/06 05:32:42;;;;;;;2.03;1.10;;;12.90;89.40;;;;;;4735967;30;20049;-75
2023/10/06 05:35:10;;;;;;;2.70;1.10;;;12.90;89.30;;;;;;4735627;30;20080;-75
2023/10/06 05:37:36;;;;;;;3.70;1.20;;;12.80;89.30;;;;;;4750399;30;20052;-75
2023/10/06 05:40:03;;;;;;;1.63;1.05;;;12.90;89.30;;;;;;4732922;30;20165;-76
2023/10/06 05:42:29;;;;;;;2.13;1.20;;;12.90;89.30;;;;;;4733098;30;20053;-75
2023/10/06 05:44:55;;;;;;;2.05;1.35;;;12.90;89.20;;;;;;4734023;30;20566;-76
2023/10/06 05:47:21;;;;;;;1.90;1.20;;;12.80;89.20;;;;;;4732441;30;20053;-75
2023/10/06 05:49:49;;;;;;;2.17;1.40;;;12.80;89.10;;;;;;4732548;30;20080;-75
2023/10/06 05:52:16;;;;;;;2.55;1.40;;;12.90;89.20;;;;;;4733631;30;20063;-75
2023/10/06 05:54:42;;;;;;;1.77;1.30;;;12.90;89.10;;;;;;4733365;30;20041;-76
2023/10/06 05:57:09;;;;;;;2.25;1.40;;;12.90;89.10;;;;;;4733408;30;20119;-76
2023/10/06 05:59:36;;;;;;;2.78;1.30;;;12.90;89.10;;;;;;4733089;30;20048;-75
2023/10/06 06:02:04;;;;;;;2.55;1.30;;;12.90;89.00;;;;;;4732310;30;20563;-76
2023/10/06 06:04:30;;;;;;;1.20;1.10;;;12.90;89.00;;;;;;4718041;30;20041;-76
2023/10/06 06:07:02;;;;;;;2.00;1.17;;;12.90;88.90;;;;;;4703609;30;20515;-78
2023/10/06 06:09:28;;;;;;;1.20;1.10;;;12.90;88.90;;;;;;4732694;30;20052;-78
2023/10/06 06:11:53;;;;;;;1.73;1.17;;;13.00;88.90;;;;;;4717919;30;20122;-78
2023/10/06 06:14:21;;;;;;;1.42;1.20;;;13.00;88.80;;;;;;4733495;30;20056;-78
2023/10/06 06:16:48;;;;;;;0.98;0.82;;;12.90;88.70;;;;;;4733789;30;20389;-77
2023/10/06 06:19:14;;;;;;;2.20;1.20;;;13.00;88.70;;;;;;4718216;30;20060;-78
2023/10/06 06:21:40;;;;;;;2.38;1.27;;;13.00;88.70;;;;;;4717819;30;20151;-78
2023/10/06 06:24:06;;;;;;;2.00;1.02;;;13.00;88.70;;;;;;4732550;30;20053;-76
2023/10/06 06:26:36;;;;;;;2.00;0.93;;;13.00;88.70;;;;;;4733854;30;20053;-76
2023/10/06 06:29:02;;;;;;;1.92;1.23;;;13.00;88.70;;;;;;4733671;30;20052;-77
2023/10/06 06:31:32;;;;;;;1.05;0.85;;;13.00;88.60;;;;;;4733634;30;20060;-76
2023/10/06 06:34:04;;;;;;;2.45;1.00;;;13.00;89.20;;;;;;4731868;30;20051;-76
2023/10/06 06:36:31;;;;;;;1.63;1.00;;;13.00;88.50;;;;;;4717739;30;20191;-78
2023/10/06 06:38:59;;;;;;;2.38;1.10;;;13.10;88.60;;;;;;4717672;30;20059;-78
2023/10/06 06:41:25;;;;;;;2.85;1.00;;;13.10;88.60;;;;;;4733636;30;20106;-77
2023/10/06 06:43:58;;;;;;;1.63;1.00;;;13.10;88.50;;;;;;4717667;30;20135;-77
2023/10/06 06:46:26;;;;;;;1.27;0.90;;;13.10;88.40;;;;;;4746387;30;20048;-78
2023/10/06 06:49:17;;;;;;;1.83;1.05;;;13.10;88.30;;;;;;4733642;30;20049;-77
2023/10/06 06:51:44;;;;;;;1.30;0.98;;;13.20;88.30;;;;;;4708115;30;20060;-78
2023/10/06 06:54:10;;;;;;;1.42;0.80;;;13.10;88.10;;;;;;4746175;30;20099;-78
2023/10/06 06:56:36;;;;;;;1.35;0.98;;;13.20;88.10;;;;;;4731883;30;20163;-78
2023/10/06 06:59:02;;;;;;;2.30;1.00;;;13.30;88.20;;;;;;4733169;30;20039;-78
2023/10/06 07:01:28;;;;;;;1.98;1.00;;;13.30;88.10;;;;;;4732441;30;20132;-78
2023/10/06 07:03:54;;;;;;;1.63;0.75;;;13.30;88.10;;;;;;4732989;30;20123;-78
2023/10/06 07:06:20;;;;;;;1.35;0.90;;;13.30;88.10;;;;;;4746382;30;20110;-78
2023/10/06 07:08:47;;;;;;;0.85;0.73;;;13.30;88.10;;;;;;4749770;30;20408;-78
2023/10/06 07:11:13;;;;;;;2.70;0.90;;;13.30;88.10;;;;;;4720647;30;20044;-79
2023/10/06 07:13:39;;;;;;;2.00;0.70;;;13.30;88.00;;;;;;4720367;30;20048;-78
2023/10/06 07:16:06;;;;;;;1.13;0.88;;;13.30;88.00;;;;;;4720371;30;20047;-78
2023/10/06 07:18:32;;;;;;;1.33;0.90;;;13.40;88.10;;;;;;4720438;30;20477;-78
2023/10/06 07:20:59;;;;;;;1.17;0.80;;;13.30;88.00;;;;;;4749211;30;20048;-78
2023/10/06 07:23:24;;;;;;;1.95;0.90;;;13.40;88.00;;;;;;4734770;30;20061;-78
2023/10/06 07:25:51;;;;;;;1.35;0.90;;;13.40;88.00;;;;;;4735792;30;20459;-77
2023/10/06 07:28:17;;;;;;;1.38;0.70;;;13.50;88.00;;;;;;4749394;30;20052;-78
2023/10/06 07:30:43;;;;;;;0.93;0.63;;;13.40;88.00;;;;;;4735167;30;20535;-78
2023/10/06 07:33:09;;;;;;;1.77;0.85;;;13.40;87.90;;;;;;4719771;30;20053;-78
2023/10/06 07:38:12;;;;;;;1.92;0.82;;;13.50;87.80;;;;;;4733890;30;20111;-78
2023/10/06 07:40:38;;;;;;;2.38;0.90;;;13.60;87.70;;;;;;4734479;30;20044;-78
2023/10/06 07:43:07;;;;;;;1.20;0.68;;;13.60;87.70;;;;;;4733864;30;20161;-78
2023/10/06 07:45:36;;;;;;;1.90;0.82;;;13.70;87.60;;;;;;4719317;30;20139;-78
2023/10/06 07:48:05;;;;;;;1.45;0.75;;;13.80;87.50;;;;;;4716254;30;20489;-78
2023/10/06 07:50:33;;;;;;;1.23;0.90;;;13.90;87.30;;;;;;4699537;30;20046;-78
2023/10/06 07:53:00;;;;;;;1.08;0.90;;;13.90;87.20;;;;;;4681297;30;20108;-78
2023/10/06 07:55:26;;;;;;;1.10;0.90;;;13.90;87.10;;;;;;4682235;30;20077;-78
2023/10/06 07:57:52;;;;;;;0.95;0.70;;;14.00;87.00;;;;;;4682340;30;20050;-77
2023/10/06 08:03:00;;;;;;;0.73;0.70;;;14.10;86.80;;;;;;4681466;30;20082;-79
2023/10/06 08:05:28;;;;;;;1.35;0.90;;;14.20;86.70;;;;;;4681448;30;20120;-77
2023/10/06 08:07:54;;;;;;;1.70;0.90;;;14.30;86.60;;;;;;4681579;30;20552;-78
2023/10/06 08:10:20;;;;;;;1.88;1.00;;;14.30;86.50;;;;;;4665995;30;20054;-77
2023/10/06 08:12:50;;;;;;;1.33;1.00;;;14.40;86.40;;;;;;4663693;30;20582;-78
2023/10/06 08:15:17;;;;;;;1.63;0.85;;;14.40;86.20;;;;;;4663933;30;20404;-78
2023/10/06 08:17:45;;;;;;;2.47;1.00;;;14.50;86.30;;;;;;4663896;30;20699;-78
2023/10/06 08:20:12;;;;;;;1.35;0.98;;;14.60;86.30;;;;;;4680209;30;20573;-78
2023/10/06 08:22:38;;;;;;;1.70;1.00;;;14.60;86.20;;;;;;4698912;30;20112;-78
2023/10/06 08:25:09;;;;;;;2.13;1.00;;;14.70;86.10;;;;;;4710411;30;20490;-78
2023/10/06 08:27:35;;;;;;;2.47;0.95;;;14.80;86.00;;;;;;4707939;30;20099;-78
2023/10/06 08:30:07;;;;;;;1.75;1.10;;;14.80;85.80;;;;;;4719282;30;20141;-78
2023/10/06 08:32:37;;;;;;;1.73;0.90;;;14.90;85.80;;;;;;4735220;30;20041;-78
2023/10/06 08:35:12;;;;;;;2.88;1.10;;;15.00;85.70;;;;;;4733865;30;20045;-78
2023/10/06 08:37:42;;;;;;;1.70;1.00;;;15.00;85.50;;;;;;4720058;30;20037;-78
2023/10/06 08:40:16;;;;;;;2.00;0.98;;;15.20;85.60;;;;;;4735098;30;20052;-78
2023/10/06 08:42:48;;;;;;;2.13;1.08;;;15.20;85.40;;;;;;4734089;30;20049;-78
2023/10/06 08:45:25;;;;;;;2.45;1.20;;;15.30;85.30;;;;;;4735507;30;20041;-78
2023/10/06 08:47:55;;;;;;;2.40;1.20;;;15.40;85.20;;;;;;4733914;30;20076;-78
2023/10/06 08:50:22;;;;;;;2.00;1.20;;;15.40;85.10;;;;;;4733410;30;20055;-78
2023/10/06 08:52:50;;;;;;;2.17;1.00;;;15.50;85.10;;;;;;4719316;30;20072;-78
2023/10/06 08:55:18;;;;;;;2.13;1.00;;;15.50;85.00;;;;;;4733887;30;20048;-78
2023/10/06 08:57:46;;;;;;;1.80;1.20;;;15.70;85.00;;;;;;4747293;30;20505;-78
2023/10/06 09:00:15;;;;;;;2.42;1.20;;;15.70;84.80;;;;;;4752156;30;20488;-78
2023/10/06 09:02:42;;;;;;;2.00;1.02;;;15.90;84.60;;;;;;4736261;30;20052;-78
2023/10/06 09:05:10;;;;;;;2.47;1.30;;;15.90;84.50;;;;;;4721997;30;20056;-78
2023/10/06 09:07:36;;;;;;;2.38;1.15;;;16.00;84.50;;;;;;4719862;30;20067;-78
2023/10/06 09:10:17;;;;;;;1.90;1.35;;;16.10;84.30;;;;;;4735162;30;20385;-78
2023/10/06 09:12:45;;;;;;;;;;;16.20;84.40;;;;;;4735027;30;20059;-78
2023/10/06 09:15:16;;;;;;;1.08;0.95;;;16.30;84.40;;;;;;4748824;30;19922;-77
2023/10/06 09:17:41;;;;;;;2.23;1.30;;;16.30;84.30;;;;;;4736024;30;20128;-77
2023/10/06 09:20:08;;;;;;;2.88;1.25;;;16.20;84.10;;;;;;4734370;30;20115;-77
2023/10/06 09:22:49;;;;;;;1.80;1.00;;;16.40;84.20;;;;;;4734053;30;20041;-77
2023/10/06 09:25:18;;;;;;;1.90;1.27;;;16.40;84.30;;;;;;4733967;30;20048;-77
2023/10/06 09:27:44;;;;;;;3.42;1.17;;;16.40;84.20;;;;;;4733176;30;20107;-78
2023/10/06 09:30:11;;;;;;;2.70;1.20;;;16.50;84.20;;;;;;4718735;30;20064;-78
2023/10/06 09:32:39;;;;;;;1.90;1.15;;;16.60;84.10;;;;;;4748513;30;20413;-78
2023/10/06 09:35:21;;;;;;;2.28;1.50;;;16.60;84.10;;;;;;4733961;30;20033;-77
2023/10/06 09:37:48;;;;;;;3.67;1.50;;;16.70;84.20;;;;;;4734806;30;20385;-77
2023/10/06 09:40:22;;;;;;;4.28;1.38;;;16.70;84.10;;;;;;4718744;30;20060;-77
2023/10/06 09:42:49;;;;;;;3.42;1.20;;;16.70;84.10;;;;;;4734400;30;20131;-77
2023/10/06 09:45:18;;;;;;;2.38;1.27;;;16.70;84.10;;;;;;4719772;30;20049;-77
2023/10/06 09:47:49;;;;;;;3.67;1.38;;;16.80;84.20;;;;;;4705574;30;20447;-78
2023/10/06 09:50:18;;;;;;;2.90;1.27;;;16.80;84.20;;;;;;4733814;30;20045;-77
2023/10/06 09:52:46;;;;;;;2.30;1.33;;;16.80;84.30;;;;;;4719147;30;20060;-77
2023/10/06 09:55:14;;;;;;;2.72;1.35;;;16.80;85.00;;;;;;4748577;30;20045;-77
2023/10/06 09:57:43;;;;;;;3.13;1.25;;;16.80;84.40;;;;;;4748827;30;20390;-78
2023/10/06 10:00:16;;;;;;;2.95;1.10;;;17.00;84.40;;;;;;4735018;30;20047;-77
2023/10/06 10:02:45;;;;;;;1.98;1.10;;;17.00;84.30;;;;;;4735048;30;20060;-77
2023/10/06 10:05:13;;;;;;;1.02;0.90;;;17.00;84.30;;;;;;4733485;30;20405;-77
2023/10/06 10:07:40;;;;;;;2.53;1.15;;;17.10;84.40;;;;;;4718152;30;20052;-77
2023/10/06 10:10:10;;;;;;;2.10;1.17;;;17.10;84.30;;;;;;4719529;30;20519;-77
2023/10/06 10:13:13;;;;;;;3.30;1.08;;;17.10;84.20;;;;;;4719258;30;20457;-77
2023/10/06 10:16:13;;;;;;;4.22;1.40;;;17.20;84.20;;;;;;4722814;30;20405;-78
2023/10/06 10:18:40;;;;;;;1.70;1.13;;;17.30;84.10;;;;;;4734338;30;20083;-77
2023/10/06 10:21:11;;;;;;;2.08;1.20;;;17.30;83.80;;;;;;4718344;30;20528;-77
2023/10/06 10:23:41;;;;;;;3.00;1.13;;;17.40;83.80;;;;;;4732715;30;20059;-78
2023/10/06 10:26:27;;;;;;;1.63;1.03;;;17.40;83.80;;;;;;4733587;30;20067;-77
2023/10/06 10:29:24;;;;;;;3.47;1.20;;;17.50;83.80;;;;;;4734486;30;20099;-77
2023/10/06 10:31:54;;;;;;;3.20;1.30;;;17.40;83.60;;;;;;4720433;30;20056;-77
2023/10/06 10:34:21;;;;;;;3.45;1.20;;;17.60;83.60;;;;;;4704135;30;20110;-77
2023/10/06 10:36:49;;;;;;;1.55;1.08;;;17.70;83.50;;;;;;4733792;30;20052;-77
2023/10/06 10:39:19;;;;;;;3.00;1.10;;;17.80;83.40;;;;;;4704200;30;20134;-77
2023/10/06 10:41:45;;;;;;;1.93;1.10;;;17.90;83.30;;;;;;4733854;30;20052;-78
2023/10/06 10:44:12;;;;;;;2.22;1.27;;;17.90;83.10;;;;;;4734585;30;20416;-77
2023/10/06 10:46:42;;;;;;;1.75;1.13;;;18.00;83.00;;;;;;4748507;30;20048;-78
2023/10/06 10:49:10;;;;;;;1.80;1.13;;;18.10;82.90;;;;;;4750869;30;20043;-78
2023/10/06 10:51:57;;;;;;;1.73;1.00;;;18.00;82.70;;;;;;4735620;30;20087;-77
2023/10/06 10:54:26;;;;;;;2.28;1.25;;;18.10;82.70;;;;;;4751608;30;20063;-78
2023/10/06 10:56:53;;;;;;;2.22;1.00;;;18.20;82.70;;;;;;4735474;30;20040;-78
2023/10/06 10:59:21;;;;;;;2.22;1.10;;;18.10;82.70;;;;;;4720434;30;20076;-78
2023/10/06 11:01:51;;;;;;;2.33;1.00;;;18.10;82.80;;;;;;4734557;30;20057;-78
2023/10/06 11:04:24;;;;;;;1.00;0.90;;;18.10;82.90;;;;;;4733422;30;20041;-77
2023/10/06 11:06:51;;;;;;;2.45;1.00;;;18.10;82.90;;;;;;4733799;30;20033;-77
2023/10/06 11:09:30;;;;;;;3.47;1.13;;;18.20;83.00;;;;;;4747225;30;20044;-77
2023/10/06 11:11:58;;;;;;;2.03;1.17;;;18.20;83.00;;;;;;4733588;30;20076;-77
2023/10/06 11:14:27;;;;;;;2.05;1.08;;;18.20;82.90;;;;;;4747023;30;20061;-77
2023/10/06 11:17:02;;;;;;;2.75;1.02;;;18.20;82.80;;;;;;4732462;30;20122;-79
2023/10/06 11:19:29;;;;;;;2.80;1.20;;;18.20;82.80;;;;;;4705135;30;20139;-76
2023/10/06 11:22:07;;;;;;;2.45;1.40;;;18.30;82.70;;;;;;4732861;30;20052;-78
2023/10/06 11:24:34;;;;;;;2.85;0.90;;;18.30;82.70;;;;;;4732200;30;20048;-77
2023/10/06 11:27:14;;;;;;;1.45;0.95;;;18.30;82.60;;;;;;4732884;30;20412;-77
2023/10/06 11:29:41;;;;;;;1.45;0.98;;;18.30;82.60;;;;;;4733805;30;20064;-76
2023/10/06 11:32:07;;;;;;;1.17;0.95;;;18.50;82.70;;;;;;4734776;30;20511;-77
2023/10/06 11:34:36;;;;;;;1.95;1.13;;;18.40;82.50;;;;;;4718838;30;20147;-77
2023/10/06 11:37:02;;;;;;;3.22;1.05;;;18.50;82.50;;;;;;4733301;30;20044;-77
2023/10/06 11:39:29;;;;;;;1.98;1.02;;;18.50;82.40;;;;;;4733913;30;20049;-78
2023/10/06 11:42:25;;;;;;;2.70;1.20;;;18.50;82.30;;;;;;4705615;30;20049;-77
2023/10/06 11:44:55;;;;;;;1.40;0.80;;;18.50;82.20;;;;;;4735404;30;20485;-76
2023/10/06 11:47:41;;;;;;;1.10;0.90;;;18.60;82.20;;;;;;4735281;30;20112;-76
2023/10/06 11:50:08;;;;;;;2.55;1.13;;;18.70;82.20;;;;;;4733004;30;20071;-77
2023/10/06 11:52:34;;;;;;;2.38;1.13;;;18.70;82.10;;;;;;4735240;30;20131;-78
2023/10/06 11:55:08;;;;;;;3.38;1.30;;;18.70;81.90;;;;;;4737593;30;20052;-77
2023/10/06 11:57:47;;;;;;;2.22;1.20;;;18.70;81.70;;;;;;4736775;30;20055;-77
2023/10/06 12:00:17;;;;;;;2.83;1.15;;;18.80;81.70;;;;;;4735999;30;20051;-76
2023/10/06 12:02:50;;;;;;;2.88;1.13;;;18.80;81.70;;;;;;4736873;30;20052;-76
2023/10/06 12:05:18;;;;;;;3.65;1.30;;;18.90;81.70;;;;;;4735326;30;20052;-76
2023/10/06 12:07:47;;;;;;;1.45;1.05;;;19.00;81.50;;;;;;4736728;30;20052;-77
2023/10/06 12:10:17;;;;;;;2.60;1.10;;;19.00;81.50;;;;;;4752699;30;20049;-77
2023/10/06 12:12:44;;;;;;;2.60;1.15;;;19.00;81.30;;;;;;4753184;30;20416;-77
2023/10/06 12:15:13;;;;;;;2.65;1.30;;;19.00;81.20;;;;;;4738557;30;20040;-77
2023/10/06 12:17:39;;;;;;;4.13;1.30;;;19.10;81.20;;;;;;4738208;30;20126;-77
2023/10/06 12:20:08;;;;;;;2.67;1.50;;;19.10;81.10;;;;;;4736849;30;20488;-76
2023/10/06 12:22:34;;;;;;;2.25;1.20;;;19.10;81.10;;;;;;4735978;30;20059;-77
2023/10/06 12:25:00;;;;;;;3.42;1.40;;;19.00;81.10;;;;;;4736085;30;20040;-77
2023/10/06 12:27:27;;;;;;;2.70;1.30;;;19.00;81.30;;;;;;4737371;30;20068;-78
2023/10/06 12:29:55;;;;;;;3.55;1.40;;;19.10;81.30;;;;;;4740221;30;20127;-78
2023/10/06 12:32:21;;;;;;;2.65;1.10;;;19.00;81.20;;;;;;4735824;30;20059;-77
2023/10/06 12:34:48;;;;;;;4.10;1.20;;;19.00;81.40;;;;;;4734553;30;20036;-76
2023/10/06 12:37:15;;;;;;;2.28;1.10;;;19.00;81.50;;;;;;4723831;30;20053;-77
2023/10/06 12:39:45;;;;;;;2.10;1.20;;;18.90;81.50;;;;;;4736539;30;20049;-77
2023/10/06 12:42:11;;;;;;;1.85;1.20;;;18.90;81.60;;;;;;4735364;30;20052;-77
2023/10/06 12:44:42;;;;;;;2.00;1.17;;;18.90;81.60;;;;;;4735903;30;20404;-74
2023/10/06 12:47:11;;;;;;;1.80;1.20;;;18.80;81.60;;;;;;4738221;30;20048;-75
2023/10/06 12:49:43;;;;;;;3.40;1.48;;;18.80;81.60;;;;;;4741057;30;20092;-76
2023/10/06 12:52:10;;;;;;;2.53;1.38;;;18.90;81.70;;;;;;4742062;30;20076;-78
2023/10/06 12:54:36;;;;;;;2.00;1.20;;;18.80;81.60;;;;;;4704802;30;20048;-78
2023/10/06 12:57:03;;;;;;;2.22;1.10;;;18.90;81.70;;;;;;4714208;30;20398;-77
2023/10/06 12:59:29;;;;;;;2.50;1.17;;;18.80;81.60;;;;;;4736402;30;20535;-77
2023/10/06 13:01:57;;;;;;;3.72;1.40;;;18.90;81.60;;;;;;4721504;30;20111;-76
2023/10/06 13:04:23;;;;;;;2.22;1.10;;;18.90;81.50;;;;;;4727490;30;20044;-77
2023/10/06 13:06:49;;;;;;;1.95;1.20;;;19.00;81.40;;;;;;4730790;30;20061;-79
2023/10/06 13:09:22;;;;;;;1.98;1.02;;;19.00;81.30;;;;;;4723993;30;20057;-77